Time;durP1;ratioP1;P1;durP2;ratioP2;P2;SDS_P1;SDS_P2;PMS_P1;PMS_P2;Temp;Humidity;BMP_temperature;BMP_pressure;BME280_temperature;BME280_humidity;BME280_pressure;Samples;Min_cycle;Max_cycle;Signal;HPM_P1;HPM_P2
2023/09/10 00:00:30;;;;;;;15.90;10.95;;;22.50;99.90;;;;;;5016650;28;20038;-57
2023/09/10 00:02:57;;;;;;;14.73;9.90;;;22.40;99.90;;;;;;5015453;28;20042;-57
2023/09/10 00:05:24;;;;;;;18.48;10.73;;;22.40;99.90;;;;;;5016213;28;20044;-59
2023/09/10 00:07:51;;;;;;;14.68;10.68;;;22.40;99.90;;;;;;5015917;28;20046;-59
2023/09/10 00:10:18;;;;;;;13.73;9.90;;;22.40;99.90;;;;;;5016168;28;20046;-58
2023/09/10 00:12:44;;;;;;;15.35;10.10;;;22.30;99.90;;;;;;5016401;28;20034;-57
2023/09/10 00:15:11;;;;;;;12.25;10.23;;;22.30;99.90;;;;;;5016435;28;20038;-56
2023/09/10 00:17:38;;;;;;;13.20;11.02;;;22.30;99.90;;;;;;5016346;28;20046;-58
2023/09/10 00:20:06;;;;;;;12.25;10.32;;;22.20;99.90;;;;;;5016396;28;20041;-58
2023/09/10 00:22:33;;;;;;;14.77;11.18;;;22.20;99.90;;;;;;5016381;28;20050;-57
2023/09/10 00:25:00;;;;;;;14.77;11.00;;;22.20;99.90;;;;;;5016025;28;20029;-59
2023/09/10 00:27:27;;;;;;;13.63;11.45;;;22.10;99.90;;;;;;5015918;28;20045;-57
2023/09/10 00:29:53;;;;;;;17.00;11.63;;;22.10;99.90;;;;;;5014142;28;20046;-59
2023/09/10 00:32:21;;;;;;;13.45;11.18;;;22.10;99.90;;;;;;5016208;28;20038;-58
2023/09/10 00:34:48;;;;;;;16.90;11.20;;;22.00;99.90;;;;;;5014373;28;20145;-58
2023/09/10 00:37:16;;;;;;;14.85;11.35;;;22.00;99.90;;;;;;5015956;28;20038;-60
2023/09/10 00:39:43;;;;;;;16.20;10.80;;;22.00;99.90;;;;;;5015974;28;20064;-59
2023/09/10 00:42:11;;;;;;;13.98;10.77;;;22.00;99.90;;;;;;5015868;28;20049;-60
2023/09/10 00:44:38;;;;;;;12.50;11.00;;;22.00;99.90;;;;;;5015726;28;20041;-59
2023/09/10 00:47:05;;;;;;;13.38;10.82;;;22.00;99.90;;;;;;5015147;28;20046;-60
2023/09/10 00:49:32;;;;;;;12.85;11.05;;;22.00;99.90;;;;;;5014464;28;20056;-56
2023/09/10 00:51:59;;;;;;;14.00;11.50;;;21.90;99.90;;;;;;5014257;28;20448;-59
2023/09/10 00:54:26;;;;;;;15.70;11.25;;;21.90;99.90;;;;;;5015635;28;20038;-58
2023/09/10 00:56:53;;;;;;;16.33;11.88;;;21.80;99.90;;;;;;5013688;28;20386;-57
2023/09/10 00:59:19;;;;;;;14.90;11.40;;;21.80;99.90;;;;;;5015258;28;20038;-57
2023/09/10 01:01:46;;;;;;;13.38;11.65;;;21.70;99.90;;;;;;5015620;28;20054;-59
2023/09/10 01:04:13;;;;;;;15.65;12.00;;;21.60;99.90;;;;;;5014188;28;20133;-59
2023/09/10 01:06:40;;;;;;;16.27;12.60;;;21.60;99.90;;;;;;5015289;28;20048;-62
2023/09/10 01:09:07;;;;;;;16.05;12.23;;;21.60;99.90;;;;;;5013863;28;20045;-60
2023/09/10 01:11:34;;;;;;;14.07;11.40;;;21.60;99.90;;;;;;5014796;28;20069;-62
2023/09/10 01:14:01;;;;;;;20.40;11.68;;;21.60;99.90;;;;;;5013517;28;20092;-61
2023/09/10 01:16:28;;;;;;;15.35;11.18;;;21.60;99.90;;;;;;5012749;28;20432;-58
2023/09/10 01:18:54;;;;;;;13.30;11.65;;;21.60;99.90;;;;;;5013428;28;20081;-60
2023/09/10 01:21:21;;;;;;;14.77;11.90;;;21.50;99.90;;;;;;5014826;28;20129;-60
2023/09/10 01:23:48;;;;;;;14.27;10.70;;;21.50;99.90;;;;;;5013939;28;20054;-57
2023/09/10 01:26:15;;;;;;;14.60;11.30;;;21.50;99.90;;;;;;5013380;28;20041;-55
2023/09/10 01:28:42;;;;;;;12.40;10.93;;;21.50;99.90;;;;;;5013189;28;20474;-59
2023/09/10 01:31:08;;;;;;;12.60;11.02;;;21.50;99.90;;;;;;5014289;28;20041;-57
2023/09/10 01:33:35;;;;;;;11.95;10.68;;;21.50;99.90;;;;;;5014932;28;20042;-57
2023/09/10 01:36:02;;;;;;;14.20;10.80;;;21.50;99.90;;;;;;5013348;28;20397;-60
2023/09/10 01:38:29;;;;;;;12.73;11.32;;;21.40;99.90;;;;;;5014280;28;20052;-53
2023/09/10 01:40:56;;;;;;;13.43;11.05;;;21.40;99.90;;;;;;5015014;28;20450;-55
2023/09/10 01:43:23;;;;;;;13.50;10.68;;;21.40;99.90;;;;;;5013361;28;20049;-56
2023/09/10 01:45:49;;;;;;;16.02;11.10;;;21.30;99.90;;;;;;5014564;28;20053;-60
2023/09/10 01:48:16;;;;;;;13.57;10.75;;;21.30;99.90;;;;;;5014043;28;20064;-59
2023/09/10 01:50:43;;;;;;;12.85;10.63;;;21.20;99.90;;;;;;5014380;28;20046;-60
2023/09/10 01:53:10;;;;;;;16.02;11.13;;;21.20;99.90;;;;;;5012808;28;20050;-58
2023/09/10 01:55:37;;;;;;;15.65;11.23;;;21.20;99.90;;;;;;5014897;28;20100;-58
2023/09/10 01:58:04;;;;;;;13.80;10.80;;;21.20;99.90;;;;;;5013889;28;20100;-60
2023/09/10 02:00:31;;;;;;;15.10;10.82;;;21.10;99.90;;;;;;5012727;28;20130;-55
2023/09/10 02:02:57;;;;;;;15.13;10.52;;;21.10;99.90;;;;;;5014099;28;20112;-58
2023/09/10 02:05:25;;;;;;;12.88;10.55;;;21.10;99.90;;;;;;5013852;28;20382;-52
2023/09/10 02:07:51;;;;;;;12.25;10.77;;;21.20;99.90;;;;;;5012462;28;20048;-54
2023/09/10 02:10:18;;;;;;;13.45;11.70;;;21.10;99.90;;;;;;5012992;28;20140;-55
2023/09/10 02:12:46;;;;;;;12.75;11.27;;;21.10;99.90;;;;;;5012455;28;20046;-56
2023/09/10 02:15:13;;;;;;;15.02;10.77;;;21.10;99.90;;;;;;5013921;28;20038;-59
2023/09/10 02:17:40;;;;;;;14.40;10.52;;;21.10;99.90;;;;;;5012098;28;20056;-57
2023/09/10 02:20:09;;;;;;;14.52;11.07;;;21.00;99.90;;;;;;5014093;28;20038;-57
2023/09/10 02:22:37;;;;;;;12.70;10.82;;;21.00;99.90;;;;;;5014107;28;20463;-56
2023/09/10 02:25:04;;;;;;;13.77;10.18;;;21.00;99.90;;;;;;5014278;28;20116;-57
2023/09/10 02:27:31;;;;;;;17.02;10.65;;;20.90;99.90;;;;;;5013180;28;20037;-58
2023/09/10 02:29:59;;;;;;;13.55;9.98;;;20.90;99.90;;;;;;5012179;28;20129;-59
2023/09/10 02:32:26;;;;;;;12.73;9.82;;;20.90;99.90;;;;;;5012417;28;20092;-59
2023/09/10 02:34:53;;;;;;;15.50;10.15;;;20.90;99.90;;;;;;5014062;28;20061;-60
2023/09/10 02:37:20;;;;;;;16.45;10.48;;;20.90;99.90;;;;;;5012559;28;20425;-59
2023/09/10 02:39:47;;;;;;;16.50;10.18;;;20.80;99.90;;;;;;5012803;28;20137;-60
2023/09/10 02:42:14;;;;;;;13.63;10.50;;;20.80;99.90;;;;;;5012133;28;20409;-57
2023/09/10 02:44:41;;;;;;;13.40;10.13;;;20.80;99.90;;;;;;5012649;28;20133;-60
2023/09/10 02:47:07;;;;;;;13.63;10.40;;;20.80;99.90;;;;;;5013332;28;20048;-57
2023/09/10 02:49:34;;;;;;;13.90;10.43;;;20.80;99.90;;;;;;5012487;28;20411;-54
2023/09/10 02:52:01;;;;;;;12.35;11.07;;;20.70;99.90;;;;;;5013985;28;20073;-60
2023/09/10 02:54:28;;;;;;;12.05;10.75;;;20.70;99.90;;;;;;5013949;28;20045;-58
2023/09/10 02:56:55;;;;;;;12.82;10.45;;;20.70;99.90;;;;;;5013243;28;20449;-59
2023/09/10 02:59:23;;;;;;;14.45;11.63;;;20.70;99.90;;;;;;5014026;28;20444;-58
2023/09/10 03:01:50;;;;;;;12.65;10.82;;;20.70;99.90;;;;;;5011936;28;20088;-60
2023/09/10 03:04:17;;;;;;;12.55;11.15;;;20.70;99.90;;;;;;5012040;28;20472;-56
2023/09/10 03:06:43;;;;;;;12.45;11.25;;;20.60;99.90;;;;;;5012265;28;20505;-57
2023/09/10 03:09:11;;;;;;;12.68;10.60;;;20.60;99.90;;;;;;5013206;28;20065;-57
2023/09/10 03:11:38;;;;;;;13.00;10.10;;;20.60;99.90;;;;;;5012022;28;20050;-59
2023/09/10 03:14:05;;;;;;;14.00;10.02;;;20.60;99.90;;;;;;5012191;28;20439;-60
2023/09/10 03:16:32;;;;;;;11.88;10.00;;;20.60;99.90;;;;;;5011942;28;20053;-59
2023/09/10 03:18:59;;;;;;;12.90;9.65;;;20.60;99.90;;;;;;5013389;28;20038;-60
2023/09/10 03:21:26;;;;;;;12.85;9.48;;;20.50;99.90;;;;;;5012424;28;20056;-56
2023/09/10 03:23:53;;;;;;;12.18;9.90;;;20.50;99.90;;;;;;5012013;28;20049;-60
2023/09/10 03:26:20;;;;;;;12.45;9.40;;;20.50;99.90;;;;;;5011953;28;20042;-58
2023/09/10 03:28:47;;;;;;;11.90;8.65;;;20.40;99.90;;;;;;5011913;28;20041;-56
2023/09/10 03:31:14;;;;;;;9.38;8.07;;;20.40;99.90;;;;;;5012066;28;20034;-59
2023/09/10 03:33:41;;;;;;;13.45;8.98;;;20.40;99.90;;;;;;4996053;28;20046;-59
2023/09/10 03:36:09;;;;;;;12.38;8.68;;;20.30;99.90;;;;;;4996077;28;20038;-56
2023/09/10 03:38:36;;;;;;;10.82;9.05;;;20.30;99.90;;;;;;5014054;28;20068;-58
2023/09/10 03:41:03;;;;;;;11.57;9.57;;;20.30;99.90;;;;;;5015475;28;20042;-55
2023/09/10 03:43:30;;;;;;;12.32;9.68;;;20.20;99.90;;;;;;5015386;28;20046;-57
2023/09/10 03:45:58;;;;;;;11.00;8.98;;;20.20;99.90;;;;;;5015149;28;20123;-59
2023/09/10 03:48:25;;;;;;;10.52;9.38;;;20.10;99.90;;;;;;5015331;28;20062;-56
2023/09/10 03:50:51;;;;;;;13.35;9.65;;;20.20;99.90;;;;;;5015132;28;20100;-59
2023/09/10 03:53:18;;;;;;;12.30;9.93;;;20.10;99.90;;;;;;5015165;28;20472;-55
2023/09/10 03:55:46;;;;;;;12.95;9.82;;;20.10;99.90;;;;;;5014992;28;20404;-60
2023/09/10 03:58:14;;;;;;;14.55;9.95;;;20.10;99.90;;;;;;5014783;28;20046;-58
2023/09/10 04:00:40;;;;;;;11.90;10.38;;;20.10;99.90;;;;;;5015475;28;20153;-54
2023/09/10 04:03:08;;;;;;;12.88;11.10;;;20.10;99.90;;;;;;4999319;28;20366;-53
2023/09/10 04:05:35;;;;;;;13.98;11.20;;;20.10;99.90;;;;;;5014950;28;20048;-55
2023/09/10 04:08:03;;;;;;;13.20;11.48;;;20.10;99.90;;;;;;5016183;28;20092;-60
2023/09/10 04:10:30;;;;;;;17.30;12.73;;;20.00;99.90;;;;;;5015889;28;20030;-58
2023/09/10 04:12:56;;;;;;;16.77;13.05;;;20.00;99.90;;;;;;5014624;28;20489;-56
2023/09/10 04:15:23;;;;;;;14.27;11.95;;;20.00;99.90;;;;;;5014682;28;20405;-60
2023/09/10 04:17:50;;;;;;;14.50;11.93;;;19.90;99.90;;;;;;5015985;28;20040;-55
2023/09/10 04:20:19;;;;;;;13.45;11.02;;;19.90;99.90;;;;;;5016096;28;20108;-55
2023/09/10 04:22:47;;;;;;;12.98;11.38;;;20.00;99.90;;;;;;5014517;28;20046;-58
2023/09/10 04:25:13;;;;;;;14.65;11.50;;;20.00;99.90;;;;;;5016339;28;20073;-60
2023/09/10 04:27:40;;;;;;;13.30;10.57;;;19.90;99.90;;;;;;5014370;28;20133;-56
2023/09/10 04:30:08;;;;;;;14.85;10.95;;;19.90;99.90;;;;;;5014698;28;20417;-56
2023/09/10 04:32:35;;;;;;;12.98;11.52;;;19.90;99.90;;;;;;5014526;28;20038;-58
2023/09/10 04:35:02;;;;;;;13.25;11.05;;;19.90;99.90;;;;;;5014260;28;20050;-56
2023/09/10 04:37:28;;;;;;;16.77;11.80;;;20.00;99.90;;;;;;5014291;28;20049;-56
2023/09/10 04:39:55;;;;;;;13.35;11.95;;;19.90;99.90;;;;;;5014635;28;20408;-56
2023/09/10 04:42:22;;;;;;;15.43;11.55;;;19.90;99.90;;;;;;5015583;28;20485;-57
2023/09/10 04:44:49;;;;;;;14.95;12.02;;;19.90;99.90;;;;;;5014474;28;20133;-55
2023/09/10 04:47:16;;;;;;;17.48;12.23;;;19.90;99.90;;;;;;5013977;28;20057;-55
2023/09/10 04:49:43;;;;;;;18.27;11.52;;;19.90;99.90;;;;;;5014283;28;20045;-58
2023/09/10 04:52:10;;;;;;;13.18;11.88;;;19.80;99.90;;;;;;5014461;28;20429;-57
2023/09/10 04:54:37;;;;;;;16.45;11.13;;;19.80;99.90;;;;;;5015372;28;20038;-55
2023/09/10 04:57:03;;;;;;;12.85;11.02;;;19.80;99.90;;;;;;5015439;28;20038;-56
2023/09/10 04:59:30;;;;;;;11.60;10.30;;;19.80;99.90;;;;;;5014610;28;20041;-56
2023/09/10 05:01:58;;;;;;;11.73;10.50;;;19.80;99.90;;;;;;5015210;28;20042;-56
2023/09/10 05:04:25;;;;;;;14.98;10.20;;;19.70;99.90;;;;;;5013777;28;20050;-53
2023/09/10 05:06:52;;;;;;;11.73;9.65;;;19.70;99.90;;;;;;5013568;28;20133;-53
2023/09/10 05:09:19;;;;;;;12.10;10.10;;;19.60;99.90;;;;;;5013383;28;20441;-52
2023/09/10 05:11:46;;;;;;;12.48;10.13;;;19.60;99.90;;;;;;5014961;28;20061;-56
2023/09/10 05:14:13;;;;;;;12.10;10.32;;;19.60;99.90;;;;;;5013418;28;20042;-55
2023/09/10 05:16:40;;;;;;;12.90;9.98;;;19.50;99.90;;;;;;5013520;28;20042;-53
2023/09/10 05:19:07;;;;;;;12.68;10.60;;;19.50;99.90;;;;;;5013458;28;20128;-51
2023/09/10 05:21:34;;;;;;;14.23;10.32;;;19.50;99.90;;;;;;5015260;28;20108;-52
2023/09/10 05:24:01;;;;;;;16.15;12.13;;;19.50;99.90;;;;;;5014602;28;20120;-57
2023/09/10 05:26:28;;;;;;;19.13;14.35;;;19.40;99.90;;;;;;5015020;28;20041;-55
2023/09/10 05:28:55;;;;;;;19.67;17.70;;;19.40;99.90;;;;;;5013335;28;20049;-58
2023/09/10 05:31:22;;;;;;;26.10;20.77;;;19.50;99.90;;;;;;5014778;28;20125;-56
2023/09/10 05:33:50;;;;;;;24.80;22.27;;;19.40;99.90;;;;;;5013535;28;20116;-51
2023/09/10 05:36:17;;;;;;;25.95;23.25;;;19.40;99.90;;;;;;5012972;28;20152;-56
2023/09/10 05:38:47;;;;;;;29.35;24.77;;;19.50;99.90;;;;;;5013236;28;20046;-55
2023/09/10 05:41:14;;;;;;;34.95;25.85;;;19.50;99.90;;;;;;5013195;28;20038;-52
2023/09/10 05:43:40;;;;;;;28.88;25.65;;;19.50;99.90;;;;;;5014230;28;20049;-55
2023/09/10 05:46:08;;;;;;;34.05;29.20;;;19.50;99.90;;;;;;5013160;28;20069;-56
2023/09/10 05:48:35;;;;;;;35.00;28.92;;;19.50;99.90;;;;;;5013313;28;20096;-57
2023/09/10 05:51:02;;;;;;;32.40;29.00;;;19.60;99.90;;;;;;5014352;28;20048;-59
2023/09/10 05:53:29;;;;;;;34.78;29.23;;;19.60;99.90;;;;;;5013233;28;20202;-59
2023/09/10 05:55:56;;;;;;;33.70;29.85;;;19.60;99.90;;;;;;5012863;28;20402;-55
2023/09/10 05:58:24;;;;;;;31.45;28.15;;;19.60;99.90;;;;;;5013919;28;20470;-59
2023/09/10 06:00:52;;;;;;;31.88;28.65;;;19.60;99.90;;;;;;5012422;28;20053;-50
2023/09/10 06:03:19;;;;;;;33.08;27.42;;;19.60;99.90;;;;;;5013798;28;20050;-56
2023/09/10 06:05:46;;;;;;;32.60;28.38;;;19.60;99.90;;;;;;5013220;28;20053;-53
2023/09/10 06:08:13;;;;;;;33.28;29.48;;;19.60;99.90;;;;;;5012524;28;20408;-51
2023/09/10 06:10:40;;;;;;;30.17;27.08;;;19.70;99.90;;;;;;5013874;28;20088;-58
2023/09/10 06:13:07;;;;;;;30.00;26.80;;;19.70;99.90;;;;;;5012443;28;20452;-56
2023/09/10 06:15:34;;;;;;;30.63;27.52;;;19.70;99.90;;;;;;5014143;28;20116;-51
2023/09/10 06:18:01;;;;;;;31.63;28.42;;;19.70;99.90;;;;;;5012759;28;20044;-59
2023/09/10 06:20:27;;;;;;;31.98;28.38;;;19.70;99.90;;;;;;5012649;28;20053;-60
2023/09/10 06:22:56;;;;;;;34.22;30.40;;;19.70;99.90;;;;;;5013045;28;20050;-54
2023/09/10 06:25:24;;;;;;;33.53;29.88;;;19.70;99.90;;;;;;5013078;28;20063;-54
2023/09/10 06:27:51;;;;;;;36.13;32.20;;;19.70;99.90;;;;;;5013542;28;20046;-57
2023/09/10 06:30:18;;;;;;;36.90;32.05;;;19.80;99.90;;;;;;5013653;28;20405;-59
2023/09/10 06:32:45;;;;;;;45.65;40.83;;;19.70;99.90;;;;;;5012764;28;20073;-60
2023/09/10 06:35:11;;;;;;;49.97;44.50;;;19.80;99.90;;;;;;5013305;28;20046;-58
2023/09/10 06:37:38;;;;;;;52.97;47.22;;;19.80;99.90;;;;;;5011956;28;20038;-58
2023/09/10 06:40:05;;;;;;;54.00;48.20;;;19.80;99.90;;;;;;5012472;28;20064;-55
2023/09/10 06:42:32;;;;;;;55.50;49.63;;;19.90;99.90;;;;;;5013572;28;20042;-56
2023/09/10 06:45:10;;;;;;;58.95;51.35;;;19.90;99.90;;;;;;5012403;28;20053;-57
2023/09/10 06:47:37;;;;;;;60.28;53.85;;;19.90;99.90;;;;;;5013786;28;20048;-55
2023/09/10 06:50:03;;;;;;;57.67;51.60;;;20.00;99.90;;;;;;5013740;28;20551;-57
2023/09/10 06:52:30;;;;;;;63.90;56.90;;;20.00;99.90;;;;;;5013815;28;20042;-54
2023/09/10 06:54:57;;;;;;;61.22;54.70;;;20.10;99.90;;;;;;5013782;28;20040;-60
2023/09/10 06:57:24;;;;;;;66.75;59.63;;;20.10;99.90;;;;;;5013268;28;20123;-59
2023/09/10 06:59:51;;;;;;;67.18;59.80;;;20.20;99.90;;;;;;5013632;28;20049;-59
2023/09/10 07:02:17;;;;;;;66.30;59.03;;;20.20;99.90;;;;;;5013068;28;20052;-50
2023/09/10 07:04:47;;;;;;;69.45;62.17;;;20.30;99.90;;;;;;5013775;28;20053;-52
2023/09/10 07:07:15;;;;;;;67.22;59.67;;;20.30;99.90;;;;;;5013398;28;20443;-59
2023/09/10 07:09:42;;;;;;;67.82;60.67;;;20.40;99.90;;;;;;5013129;28;20038;-54
2023/09/10 07:12:09;;;;;;;67.78;59.10;;;20.40;99.90;;;;;;5013674;28;20466;-52
2023/09/10 07:14:36;;;;;;;63.60;57.20;;;20.50;99.90;;;;;;5015787;28;20034;-53
2023/09/10 07:17:03;;;;;;;64.63;57.88;;;20.50;99.90;;;;;;5017418;28;20089;-55
2023/09/10 07:19:29;;;;;;;69.20;61.80;;;20.50;99.90;;;;;;5016928;28;20074;-56
2023/09/10 07:21:56;;;;;;;66.63;59.75;;;20.60;99.90;;;;;;5017242;28;20048;-56
2023/09/10 07:24:23;;;;;;;65.65;58.60;;;20.60;99.90;;;;;;5017416;28;20049;-57
2023/09/10 07:26:50;;;;;;;65.68;58.63;;;20.70;99.90;;;;;;5015724;28;20041;-54
2023/09/10 07:29:17;;;;;;;67.97;60.97;;;20.70;99.90;;;;;;5017040;28;20046;-57
2023/09/10 07:31:44;;;;;;;70.00;62.60;;;20.80;99.90;;;;;;5016628;28;20086;-59
2023/09/10 07:34:11;;;;;;;66.82;59.55;;;20.90;99.90;;;;;;5017034;28;20033;-56
2023/09/10 07:36:38;;;;;;;69.25;61.85;;;21.00;99.90;;;;;;5016921;28;20100;-55
2023/09/10 07:39:05;;;;;;;66.40;59.63;;;21.10;99.90;;;;;;5016662;28;20054;-54
2023/09/10 07:41:33;;;;;;;67.85;60.95;;;21.10;99.90;;;;;;5015532;28;20042;-60
2023/09/10 07:44:00;;;;;;;68.88;60.88;;;21.20;99.90;;;;;;5017254;28;20383;-56
2023/09/10 07:46:27;;;;;;;66.15;59.40;;;21.30;99.90;;;;;;5016442;28;20046;-53
2023/09/10 07:48:53;;;;;;;61.63;55.15;;;21.40;99.90;;;;;;5016382;28;20445;-60
2023/09/10 07:51:20;;;;;;;61.92;55.22;;;21.40;99.90;;;;;;5016579;28;20121;-57
2023/09/10 07:53:47;;;;;;;64.35;57.47;;;21.50;99.90;;;;;;5016383;28;20045;-56
2023/09/10 07:56:14;;;;;;;64.60;57.78;;;21.60;99.90;;;;;;5016544;28;20041;-57
2023/09/10 07:58:41;;;;;;;66.00;59.17;;;21.70;99.90;;;;;;5015901;28;20125;-57
2023/09/10 08:01:07;;;;;;;61.10;54.90;;;21.80;99.90;;;;;;5016276;28;20072;-60
2023/09/10 08:03:36;;;;;;;61.95;55.83;;;21.90;99.90;;;;;;5016340;28;20050;-58
2023/09/10 08:06:03;;;;;;;57.40;51.55;;;22.00;99.90;;;;;;5015125;28;20053;-59
2023/09/10 08:08:30;;;;;;;61.55;55.28;;;22.10;99.90;;;;;;5016261;28;20041;-56
2023/09/10 08:10:57;;;;;;;60.15;53.75;;;22.20;99.90;;;;;;5016556;28;20124;-54
2023/09/10 08:13:24;;;;;;;62.55;56.15;;;22.20;99.90;;;;;;5015995;28;20042;-60
2023/09/10 08:15:51;;;;;;;62.25;55.85;;;22.40;99.90;;;;;;5016014;28;20120;-55
2023/09/10 08:18:17;;;;;;;57.60;51.15;;;22.40;99.90;;;;;;5016008;28;20037;-59
2023/09/10 08:20:44;;;;;;;56.10;50.20;;;22.50;99.90;;;;;;5016460;28;20046;-59
2023/09/10 08:23:11;;;;;;;55.53;49.80;;;22.60;99.90;;;;;;5016456;28;20069;-59
2023/09/10 08:25:38;;;;;;;57.40;51.38;;;22.70;99.90;;;;;;5014124;28;20060;-56
2023/09/10 08:28:05;;;;;;;57.47;51.28;;;22.80;99.90;;;;;;5015518;28;20481;-60
2023/09/10 08:30:32;;;;;;;54.33;48.92;;;22.80;99.90;;;;;;5016273;28;20362;-58
2023/09/10 08:32:59;;;;;;;59.22;53.33;;;22.90;99.90;;;;;;5015941;28;20044;-55
2023/09/10 08:35:25;;;;;;;57.22;51.50;;;22.90;99.90;;;;;;5016163;28;20049;-56
2023/09/10 08:37:52;;;;;;;54.20;48.55;;;22.90;99.90;;;;;;5015687;28;20502;-60
2023/09/10 08:40:19;;;;;;;53.30;47.92;;;23.00;99.90;;;;;;5015392;28;20481;-58
2023/09/10 08:42:46;;;;;;;53.67;48.08;;;23.00;99.90;;;;;;5015374;28;20049;-55
2023/09/10 08:45:13;;;;;;;50.40;45.05;;;23.10;99.90;;;;;;5015826;28;20038;-57
2023/09/10 08:47:40;;;;;;;48.30;43.40;;;23.10;99.90;;;;;;5015555;28;20038;-57
2023/09/10 08:50:07;;;;;;;49.90;44.70;;;23.20;99.90;;;;;;5015403;28;20040;-61
2023/09/10 08:52:34;;;;;;;45.00;40.38;;;23.30;99.90;;;;;;5015604;28;20037;-57
2023/09/10 08:55:01;;;;;;;47.47;42.50;;;23.40;99.90;;;;;;5015621;28;20064;-58
2023/09/10 08:57:28;;;;;;;46.55;42.08;;;23.50;99.90;;;;;;5015001;28;20042;-55
2023/09/10 08:59:54;;;;;;;42.85;38.45;;;23.50;99.90;;;;;;5013817;28;20049;-56
2023/09/10 09:02:21;;;;;;;44.40;39.65;;;23.60;99.90;;;;;;5015297;28;20038;-57
2023/09/10 09:04:48;;;;;;;40.47;36.22;;;23.60;99.90;;;;;;5015335;28;20050;-54
2023/09/10 09:07:15;;;;;;;41.05;36.63;;;23.70;99.90;;;;;;5014930;28;20038;-56
2023/09/10 09:09:42;;;;;;;38.92;34.88;;;23.80;99.90;;;;;;5015220;28;20034;-59
2023/09/10 09:12:09;;;;;;;38.95;35.05;;;23.90;99.90;;;;;;5015025;28;20453;-55
2023/09/10 09:14:40;;;;;;;39.28;34.50;;;23.90;99.90;;;;;;5015073;28;20092;-58
2023/09/10 09:17:07;;;;;;;35.40;31.63;;;23.90;99.90;;;;;;5014748;28;20033;-59
2023/09/10 09:19:35;;;;;;;33.70;29.90;;;24.10;99.90;;;;;;5014497;28;20049;-59
2023/09/10 09:22:02;;;;;;;34.42;30.83;;;24.20;99.90;;;;;;5014916;28;20124;-57
2023/09/10 09:24:29;;;;;;;36.03;32.30;;;24.30;99.90;;;;;;5014734;28;20045;-60
2023/09/10 09:26:56;;;;;;;35.40;31.88;;;24.40;99.90;;;;;;5014600;28;20386;-55
2023/09/10 09:29:23;;;;;;;30.05;27.25;;;24.40;99.90;;;;;;5014719;28;20046;-58
2023/09/10 09:31:50;;;;;;;30.60;27.25;;;24.50;99.90;;;;;;5015118;28;20037;-52
2023/09/10 09:34:17;;;;;;;29.92;26.83;;;24.50;99.90;;;;;;5015205;28;20045;-55
2023/09/10 09:36:45;;;;;;;31.58;25.85;;;24.60;99.90;;;;;;5014109;28;20385;-58
2023/09/10 09:39:12;;;;;;;25.55;22.90;;;24.70;99.90;;;;;;5014925;28;20029;-58
2023/09/10 09:41:38;;;;;;;31.20;24.92;;;24.80;99.90;;;;;;5013529;28;20054;-60
2023/09/10 09:44:05;;;;;;;25.90;22.60;;;24.90;99.90;;;;;;5015001;28;20128;-60
2023/09/10 09:46:32;;;;;;;26.75;23.85;;;25.00;99.90;;;;;;5014716;28;20041;-56
2023/09/10 09:48:59;;;;;;;28.77;24.73;;;25.10;99.90;;;;;;5014809;28;20046;-58
2023/09/10 09:51:26;;;;;;;27.17;23.00;;;25.20;99.90;;;;;;5014176;28;20042;-58
2023/09/10 09:53:53;;;;;;;24.02;21.42;;;25.20;99.90;;;;;;5014143;28;20042;-58
2023/09/10 09:56:21;;;;;;;24.33;20.52;;;25.30;99.90;;;;;;5013938;28;20061;-58
2023/09/10 09:58:48;;;;;;;23.17;19.75;;;25.30;99.90;;;;;;5014189;28;20358;-58
2023/09/10 10:01:15;;;;;;;21.02;18.73;;;25.40;99.90;;;;;;5013156;28;20374;-56
2023/09/10 10:03:41;;;;;;;23.05;18.60;;;25.50;99.90;;;;;;5014343;28;20045;-59
2023/09/10 10:06:08;;;;;;;24.70;19.77;;;25.50;99.90;;;;;;5013817;28;20050;-58
2023/09/10 10:08:37;;;;;;;22.08;19.33;;;25.60;99.90;;;;;;5014171;28;20056;-58
2023/09/10 10:11:04;;;;;;;23.63;18.83;;;25.60;99.90;;;;;;5014259;28;20045;-58
2023/09/10 10:13:31;;;;;;;22.05;19.13;;;25.70;99.90;;;;;;5014158;28;20041;-59
2023/09/10 10:15:58;;;;;;;22.55;20.15;;;25.80;99.90;;;;;;5014378;28;20413;-61
2023/09/10 10:18:28;;;;;;;27.73;20.52;;;25.80;99.90;;;;;;5014121;28;20157;-59
2023/09/10 10:21:01;;;;;;;24.20;20.55;;;25.90;99.90;;;;;;5012457;28;20413;-55
2023/09/10 10:23:28;;;;;;;23.65;19.40;;;26.00;99.90;;;;;;5014133;28;20046;-58
2023/09/10 10:25:55;;;;;;;22.85;18.67;;;26.10;99.90;;;;;;5013981;28;20092;-59
2023/09/10 10:28:22;;;;;;;26.65;18.38;;;26.20;99.90;;;;;;5013898;28;20116;-57
2023/09/10 10:30:49;;;;;;;21.58;17.67;;;26.30;99.90;;;;;;5013867;28;20474;-60
2023/09/10 10:33:16;;;;;;;24.75;16.55;;;26.50;99.90;;;;;;5013579;28;20072;-59
2023/09/10 10:35:43;;;;;;;20.05;15.73;;;26.50;99.90;;;;;;5013359;28;20421;-58
2023/09/10 10:38:11;;;;;;;22.67;17.45;;;26.60;99.90;;;;;;5013572;28;20096;-60
2023/09/10 10:40:37;;;;;;;17.83;15.60;;;26.70;99.90;;;;;;5013736;28;20061;-58
2023/09/10 10:43:04;;;;;;;20.30;15.68;;;26.80;99.90;;;;;;5013789;28;20541;-59
2023/09/10 10:45:31;;;;;;;19.75;13.90;;;26.90;99.90;;;;;;5013308;28;20048;-59
2023/09/10 10:47:58;;;;;;;15.38;12.45;;;27.00;99.90;;;;;;5012944;28;20096;-55
2023/09/10 10:50:25;;;;;;;17.23;10.02;;;27.20;99.90;;;;;;5013153;28;20084;-56
2023/09/10 10:52:52;;;;;;;15.00;10.73;;;27.20;99.90;;;;;;5013138;28;20092;-60
2023/09/10 10:55:18;;;;;;;15.98;9.70;;;27.30;99.90;;;;;;5013285;28;20449;-55
2023/09/10 10:57:45;;;;;;;12.13;7.13;;;27.40;99.90;;;;;;5013101;28;20521;-59
2023/09/10 11:00:12;;;;;;;14.00;5.80;;;27.50;99.90;;;;;;5013750;28;20046;-57
2023/09/10 11:02:39;;;;;;;13.13;4.80;;;27.60;99.90;;;;;;5013312;28;20042;-58
2023/09/10 11:05:06;;;;;;;14.98;5.70;;;27.80;99.50;;;;;;5013114;28;20042;-59
2023/09/10 11:07:33;;;;;;;9.75;5.05;;;27.90;98.90;;;;;;5012901;28;20491;-58
2023/09/10 11:10:00;;;;;;;12.32;5.55;;;27.90;98.70;;;;;;5013526;28;20044;-57
2023/09/10 11:12:27;;;;;;;10.23;5.55;;;28.00;98.80;;;;;;5012805;28;20133;-58
2023/09/10 11:14:54;;;;;;;10.15;4.95;;;28.00;98.80;;;;;;5012786;28;20413;-59
2023/09/10 11:17:21;;;;;;;9.95;5.35;;;28.10;98.70;;;;;;5012823;28;20042;-59
2023/09/10 11:19:48;;;;;;;9.95;5.38;;;28.20;98.80;;;;;;5013239;28;20049;-60
2023/09/10 11:22:15;;;;;;;13.45;5.78;;;28.30;98.40;;;;;;5011711;28;20073;-58
2023/09/10 11:24:41;;;;;;;8.13;4.47;;;28.30;98.50;;;;;;5013274;28;20420;-59
2023/09/10 11:27:08;;;;;;;11.30;5.10;;;28.30;97.60;;;;;;5013324;28;20429;-59
2023/09/10 11:29:35;;;;;;;8.73;4.82;;;28.30;97.30;;;;;;5013391;28;20046;-57
2023/09/10 11:32:02;;;;;;;13.15;4.93;;;28.30;97.60;;;;;;5013183;28;20042;-59
2023/09/10 11:34:31;;;;;;;9.75;5.03;;;28.30;97.60;;;;;;5012838;28;20042;-57
2023/09/10 11:36:59;;;;;;;7.85;4.22;;;28.30;97.20;;;;;;5013075;28;20454;-59
2023/09/10 11:39:26;;;;;;;8.27;4.70;;;28.50;96.30;;;;;;5011947;28;20385;-61
2023/09/10 11:41:52;;;;;;;10.43;4.65;;;28.60;96.70;;;;;;5012690;28;20426;-55
2023/09/10 11:44:19;;;;;;;12.32;4.68;;;28.70;96.30;;;;;;5012964;28;20042;-58
2023/09/10 11:46:46;;;;;;;9.10;4.35;;;28.80;96.40;;;;;;5012514;28;20113;-58
2023/09/10 11:49:13;;;;;;;9.10;4.40;;;28.90;96.20;;;;;;5012803;28;20458;-56
2023/09/10 11:51:40;;;;;;;8.82;4.60;;;28.90;96.30;;;;;;5012913;28;20092;-58
2023/09/10 11:54:07;;;;;;;10.10;4.57;;;29.10;96.60;;;;;;5013078;28;20076;-55
2023/09/10 11:56:33;;;;;;;14.07;4.97;;;29.30;95.90;;;;;;5012076;28;20065;-59
2023/09/10 11:59:00;;;;;;;8.80;4.38;;;29.40;95.80;;;;;;5012684;28;20046;-59
2023/09/10 12:01:28;;;;;;;14.88;4.63;;;29.60;95.60;;;;;;5016166;28;20068;-58
2023/09/10 12:03:54;;;;;;;9.35;4.32;;;29.70;94.80;;;;;;5016501;28;20050;-59
2023/09/10 12:06:21;;;;;;;6.50;3.90;;;29.80;94.80;;;;;;5015904;28;20049;-58
2023/09/10 12:08:48;;;;;;;13.52;4.20;;;29.90;94.60;;;;;;5016209;28;20397;-60
2023/09/10 12:11:15;;;;;;;8.48;3.92;;;30.00;94.00;;;;;;5015689;28;20052;-59
2023/09/10 12:13:42;;;;;;;7.85;3.90;;;30.00;94.20;;;;;;5015810;28;20049;-57
2023/09/10 12:16:11;;;;;;;10.07;3.60;;;30.10;93.80;;;;;;5015595;28;20109;-60
2023/09/10 12:18:38;;;;;;;9.77;3.88;;;30.20;92.60;;;;;;5015673;28;20099;-58
2023/09/10 12:21:05;;;;;;;9.10;4.38;;;30.30;92.00;;;;;;5016158;28;20038;-57
2023/09/10 12:23:32;;;;;;;9.73;3.45;;;30.30;92.80;;;;;;5016165;28;20046;-58
2023/09/10 12:25:59;;;;;;;7.28;3.25;;;30.30;92.20;;;;;;5015471;28;20029;-59
2023/09/10 12:28:25;;;;;;;8.60;3.95;;;30.40;92.00;;;;;;5015551;28;20205;-58